Fresno (FAT/KFAT)

Map

Destinations

Information

Location
Fresno, CA
Local Time
04:50 / 4:50 am
GMT Time
12:50 / 12:50 pm
Gates
Unassigned
No FAA reported delays
METAR KFAT 161153Z 13003KT 8SM BKN022 OVC027 07/02 A3014 RMK AO2 SLP206 T00670022 10072 20067 58011
TAF KFAT 161120Z 1612/1712 VRB04KT P6SM OVC025
  • No charts available